Time;durP1;ratioP1;P1;durP2;ratioP2;P2;SDS_P1;SDS_P2;PMS_P1;PMS_P2;Temp;Humidity;BMP_temperature;BMP_pressure;BME280_temperature;BME280_humidity;BME280_pressure;Samples;Min_cycle;Max_cycle;Signal;HPM_P1;HPM_P2
2021/12/15 00:01:35;;;;;;;17.15;9.57;;;4.80;99.90;;;;;;5029574;28;20018;-79
2021/12/15 00:04:01;;;;;;;17.23;10.32;;;4.80;99.90;;;;;;5011217;28;20029;-79
2021/12/15 00:06:27;;;;;;;22.15;11.32;;;4.80;99.90;;;;;;5030598;28;20598;-79
2021/12/15 00:08:56;;;;;;;20.02;10.90;;;4.90;99.90;;;;;;5030917;28;20038;-80
2021/12/15 00:11:31;;;;;;;22.08;11.70;;;4.90;99.90;;;;;;5032433;28;20026;-81
2021/12/15 00:13:58;;;;;;;21.10;11.30;;;4.80;99.90;;;;;;5014971;28;20029;-79
2021/12/15 00:16:24;;;;;;;19.70;11.05;;;4.70;99.90;;;;;;5004897;28;20044;-79
2021/12/15 00:18:50;;;;;;;18.15;10.88;;;4.70;99.90;;;;;;5023311;28;20026;-79
2021/12/15 00:21:19;;;;;;;16.83;10.15;;;4.70;99.90;;;;;;5008336;28;20080;-80
2021/12/15 00:23:45;;;;;;;24.33;12.57;;;4.70;99.90;;;;;;5019354;28;20026;-79
2021/12/15 00:26:12;;;;;;;19.58;11.13;;;4.80;99.90;;;;;;5019866;28;20036;-80
2021/12/15 00:28:38;;;;;;;22.42;11.95;;;4.70;99.90;;;;;;5019568;28;20072;-80
2021/12/15 00:31:05;;;;;;;22.85;11.77;;;4.60;99.90;;;;;;5020020;28;20029;-81
2021/12/15 00:33:32;;;;;;;20.55;11.45;;;4.60;99.90;;;;;;5001871;28;20375;-79
2021/12/15 00:35:58;;;;;;;22.15;11.43;;;4.60;99.90;;;;;;5025946;28;20018;-79
2021/12/15 00:38:24;;;;;;;21.98;12.48;;;4.60;99.90;;;;;;5003003;28;20022;-80
2021/12/15 00:40:50;;;;;;;23.73;12.82;;;4.60;99.90;;;;;;5017597;28;20109;-80
2021/12/15 00:43:16;;;;;;;20.52;11.45;;;4.60;99.90;;;;;;5017939;28;20072;-80
2021/12/15 00:45:43;;;;;;;16.90;10.38;;;4.50;99.90;;;;;;5008660;28;20034;-79
2021/12/15 00:48:09;;;;;;;18.98;10.35;;;4.50;99.90;;;;;;4996605;28;20109;-79
2021/12/15 00:50:36;;;;;;;20.58;11.52;;;4.60;99.90;;;;;;4996540;28;20105;-79
2021/12/15 00:53:03;;;;;;;19.73;10.48;;;4.60;99.90;;;;;;4995503;28;20022;-79
2021/12/15 00:55:30;;;;;;;20.05;12.02;;;4.60;99.90;;;;;;4999212;28;20032;-80
2021/12/15 00:57:57;;;;;;;20.95;11.93;;;4.60;99.90;;;;;;4998425;28;20030;-79
2021/12/15 01:00:33;;;;;;;21.67;12.07;;;4.50;99.90;;;;;;5012098;28;20030;-79
2021/12/15 01:02:59;;;;;;;20.38;11.45;;;4.60;99.90;;;;;;5016513;28;20030;-79
2021/12/15 01:05:31;;;;;;;18.23;10.63;;;4.60;99.90;;;;;;4994546;28;20515;-79
2021/12/15 01:08:00;;;;;;;18.65;10.48;;;4.60;99.90;;;;;;4977670;28;20034;-79
2021/12/15 01:10:39;;;;;;;17.38;10.10;;;4.60;99.90;;;;;;4995793;28;20057;-79
2021/12/15 01:21:04;;;;;;;17.83;10.73;;;4.50;99.90;;;;;;5001974;28;20049;-81
2021/12/15 01:23:31;;;;;;;22.88;12.40;;;4.60;99.90;;;;;;4979771;28;20026;-79
2021/12/15 01:26:05;;;;;;;18.42;11.05;;;4.50;99.90;;;;;;4995976;28;20037;-79
2021/12/15 01:28:31;;;;;;;20.00;11.73;;;4.50;99.90;;;;;;5003298;28;20081;-80
2021/12/15 01:30:58;;;;;;;21.13;11.23;;;4.50;99.90;;;;;;5016237;28;20080;-80
2021/12/15 01:33:26;;;;;;;17.95;10.52;;;4.50;99.90;;;;;;5016663;28;20062;-81
2021/12/15 01:35:53;;;;;;;19.38;11.13;;;4.50;99.90;;;;;;5017750;28;20076;-81
2021/12/15 01:38:22;;;;;;;19.50;10.98;;;4.50;99.90;;;;;;5016609;28;20050;-81
2021/12/15 01:40:48;;;;;;;15.55;8.70;;;4.50;99.90;;;;;;5017567;28;20026;-79
2021/12/15 01:43:50;;;;;;;18.70;10.63;;;4.50;99.90;;;;;;5017569;28;20079;-80
2021/12/15 01:49:12;;;;;;;18.77;10.63;;;4.60;99.90;;;;;;5034079;28;20032;-80
2021/12/15 01:51:38;;;;;;;18.50;10.30;;;4.60;99.90;;;;;;5023268;28;20216;-80
2021/12/15 01:54:05;;;;;;;17.73;9.82;;;4.60;99.90;;;;;;5018494;28;20325;-80
2021/12/15 01:56:31;;;;;;;20.80;11.10;;;4.70;99.90;;;;;;5019927;28;20034;-79
2021/12/15 01:58:57;;;;;;;18.90;11.00;;;4.60;99.90;;;;;;5003568;28;20037;-80
2021/12/15 02:01:24;;;;;;;18.30;11.43;;;4.60;99.90;;;;;;5018682;28;20057;-80
2021/12/15 02:03:51;;;;;;;20.50;10.88;;;4.50;99.90;;;;;;5021399;28;20034;-80
2021/12/15 02:06:17;;;;;;;17.42;9.77;;;4.50;99.90;;;;;;5020152;28;20089;-80
2021/12/15 02:08:43;;;;;;;17.33;10.35;;;4.60;99.90;;;;;;5019272;28;20041;-80
2021/12/15 02:11:10;;;;;;;18.60;10.68;;;4.50;99.90;;;;;;5020527;28;20026;-80
2021/12/15 02:13:36;;;;;;;20.25;11.05;;;4.50;99.90;;;;;;5020792;28;20018;-80
2021/12/15 02:16:05;;;;;;;17.77;10.85;;;4.50;99.90;;;;;;5020734;28;20026;-81
2021/12/15 02:18:33;;;;;;;18.08;10.18;;;4.50;99.90;;;;;;5003472;28;20034;-81
2021/12/15 02:21:03;;;;;;;17.65;10.18;;;4.50;99.90;;;;;;5020125;28;20026;-81
2021/12/15 02:23:40;;;;;;;18.48;10.50;;;4.50;99.90;;;;;;5018662;28;20124;-80
2021/12/15 02:26:11;;;;;;;17.27;9.93;;;4.50;99.90;;;;;;5018268;28;20017;-79
2021/12/15 02:28:38;;;;;;;18.75;10.90;;;4.50;99.90;;;;;;5018792;28;20034;-80
2021/12/15 02:38:56;;;;;;;16.80;9.35;;;4.50;99.90;;;;;;5019239;28;20076;-80
2021/12/15 02:41:23;;;;;;;14.43;9.15;;;4.50;99.90;;;;;;5023142;28;20033;-80
2021/12/15 02:43:57;;;;;;;12.80;7.68;;;4.60;99.90;;;;;;5031114;28;20052;-81
2021/12/15 02:46:29;;;;;;;14.32;8.35;;;4.60;99.90;;;;;;5024185;28;20050;-79
2021/12/15 02:48:55;;;;;;;13.48;7.97;;;4.60;99.90;;;;;;5020462;28;20078;-79
2021/12/15 02:51:22;;;;;;;12.73;7.82;;;4.60;99.90;;;;;;5006305;28;20034;-79
2021/12/15 02:53:49;;;;;;;13.32;8.55;;;4.60;99.90;;;;;;5001574;28;20022;-79
2021/12/15 02:56:15;;;;;;;13.18;7.40;;;4.70;99.90;;;;;;4982670;28;20053;-80
2021/12/15 02:58:54;;;;;;;15.10;8.40;;;4.70;99.90;;;;;;5001545;28;20030;-80
2021/12/15 03:01:55;;;;;;;13.90;8.65;;;4.70;99.90;;;;;;5021466;28;20053;-80
2021/12/15 03:04:29;;;;;;;16.45;9.30;;;4.70;99.90;;;;;;5018118;28;20438;-80
2021/12/15 03:07:09;;;;;;;14.38;9.02;;;4.70;99.90;;;;;;5019846;28;20368;-80
2021/12/15 03:18:09;;;;;;;15.48;9.27;;;4.60;99.90;;;;;;4986355;28;20284;-80
2021/12/15 03:20:48;;;;;;;16.25;9.18;;;4.60;99.90;;;;;;5001186;28;20026;-80
2021/12/15 03:23:23;;;;;;;16.92;9.93;;;4.60;99.90;;;;;;5018640;28;20091;-80
2021/12/15 03:25:49;;;;;;;19.05;10.13;;;4.60;99.90;;;;;;5018415;28;20034;-80
2021/12/15 03:36:40;;;;;;;18.15;10.77;;;4.60;99.90;;;;;;4997608;28;20026;-79
2021/12/15 03:39:09;;;;;;;20.80;11.43;;;4.60;99.90;;;;;;4998213;28;20073;-80
2021/12/15 03:41:35;;;;;;;20.95;11.25;;;4.60;99.90;;;;;;4999067;28;20030;-80
2021/12/15 03:44:04;;;;;;;23.23;12.32;;;4.60;99.90;;;;;;5003340;28;20030;-80
2021/12/15 03:46:31;;;;;;;26.08;13.73;;;4.50;99.90;;;;;;5018088;28;20027;-81
2021/12/15 03:49:12;;;;;;;24.83;14.13;;;4.50;99.90;;;;;;5013149;28;20114;-80
2021/12/15 03:51:38;;;;;;;26.63;15.02;;;4.40;99.90;;;;;;4981435;28;20030;-80
2021/12/15 03:54:05;;;;;;;25.45;14.52;;;4.30;99.90;;;;;;4979371;28;20121;-79
2021/12/15 03:56:31;;;;;;;27.58;14.40;;;4.30;99.90;;;;;;4997603;28;20023;-79
2021/12/15 03:58:57;;;;;;;30.27;15.60;;;4.30;99.90;;;;;;4997476;28;20061;-80
2021/12/15 04:01:24;;;;;;;27.50;15.15;;;4.20;99.90;;;;;;5014226;28;20018;-80
2021/12/15 04:03:54;;;;;;;26.27;14.57;;;4.20;99.90;;;;;;5013488;28;20136;-80
2021/12/15 04:06:26;;;;;;;29.30;15.50;;;4.10;99.90;;;;;;5000221;28;20044;-79
2021/12/15 04:08:54;;;;;;;29.65;15.23;;;4.10;99.90;;;;;;5013623;28;20125;-79
2021/12/15 04:11:22;;;;;;;26.45;14.63;;;4.10;99.90;;;;;;5016492;28;20030;-79
2021/12/15 04:13:49;;;;;;;32.20;16.35;;;4.10;99.90;;;;;;5017847;28;20057;-79
2021/12/15 04:19:21;;;;;;;25.60;14.68;;;4.20;99.90;;;;;;5006046;28;20053;-79
2021/12/15 04:21:48;;;;;;;34.63;15.68;;;4.20;99.90;;;;;;5023965;28;20073;-78
2021/12/15 04:24:17;;;;;;;28.55;15.63;;;4.20;99.90;;;;;;5022136;28;20053;-79
2021/12/15 04:26:44;;;;;;;29.33;14.65;;;4.20;99.90;;;;;;5022934;28;20503;-79
2021/12/15 04:29:10;;;;;;;27.67;15.60;;;4.20;99.90;;;;;;5019987;28;20030;-79
2021/12/15 04:31:40;;;;;;;25.23;13.45;;;4.20;99.90;;;;;;5018381;28;20053;-79
2021/12/15 04:34:08;;;;;;;26.77;13.02;;;4.30;99.90;;;;;;5018682;28;20068;-79
2021/12/15 04:36:40;;;;;;;26.90;12.25;;;4.20;99.90;;;;;;5022120;28;20025;-79
2021/12/15 04:39:28;;;;;;;20.33;11.37;;;4.20;99.90;;;;;;5034158;28;20038;-84
2021/12/15 04:42:06;;;;;;;28.58;13.40;;;4.20;99.90;;;;;;5019211;28;20018;-85
2021/12/15 04:44:34;;;;;;;20.38;11.73;;;4.20;99.90;;;;;;5036661;28;20018;-85
2021/12/15 04:47:16;;;;;;;18.77;10.82;;;4.20;99.90;;;;;;5019241;28;20038;-85
2021/12/15 04:50:04;;;;;;;22.67;10.70;;;4.20;99.90;;;;;;5031610;28;20537;-85
2021/12/15 04:52:32;;;;;;;17.73;9.82;;;4.20;99.90;;;;;;5027250;28;20037;-85
2021/12/15 04:55:00;;;;;;;13.73;7.95;;;4.20;99.90;;;;;;5004372;28;20441;-84
2021/12/15 04:57:28;;;;;;;17.95;8.48;;;4.20;99.90;;;;;;4987252;28;20026;-85
2021/12/15 05:00:00;;;;;;;12.57;7.25;;;4.20;99.90;;;;;;5016413;28;20022;-84
2021/12/15 05:02:26;;;;;;;12.90;7.70;;;4.30;99.90;;;;;;5016669;28;20041;-86
2021/12/15 05:05:08;;;;;;;11.32;6.47;;;4.30;99.90;;;;;;5011063;28;20035;-85
2021/12/15 05:07:37;;;;;;;13.10;7.60;;;4.30;99.90;;;;;;4999287;28;20057;-84
2021/12/15 05:10:08;;;;;;;11.25;7.05;;;4.40;99.90;;;;;;4987187;28;20045;-84
2021/12/15 05:12:36;;;;;;;13.80;6.72;;;4.30;99.90;;;;;;4998139;28;20026;-84
2021/12/15 05:15:04;;;;;;;10.23;6.82;;;4.30;99.90;;;;;;4981893;28;20022;-84
2021/12/15 05:17:33;;;;;;;13.23;8.27;;;4.30;99.90;;;;;;4980590;28;20045;-85
2021/12/15 05:20:14;;;;;;;18.30;8.57;;;4.30;99.90;;;;;;4998123;28;20124;-85
2021/12/15 05:22:41;;;;;;;15.55;9.13;;;4.30;99.90;;;;;;4980980;28;20058;-84
2021/12/15 05:25:09;;;;;;;17.13;9.88;;;4.30;99.90;;;;;;5003756;28;20053;-84
2021/12/15 05:27:36;;;;;;;14.82;8.85;;;4.30;99.90;;;;;;5017772;28;20544;-85
2021/12/15 05:30:07;;;;;;;14.52;8.95;;;4.30;99.90;;;;;;5002881;28;20029;-84
2021/12/15 05:32:33;;;;;;;15.23;9.10;;;4.30;99.90;;;;;;5004045;28;20112;-84
2021/12/15 05:35:00;;;;;;;13.80;8.30;;;4.30;99.90;;;;;;5021243;28;20486;-84
2021/12/15 05:38:13;;;;;;;16.77;9.10;;;4.30;99.90;;;;;;4990207;28;20033;-84
2021/12/15 05:40:39;;;;;;;17.48;9.88;;;4.40;99.90;;;;;;5036083;28;20046;-84
2021/12/15 05:43:07;;;;;;;19.02;10.68;;;4.40;99.90;;;;;;5032350;28;20101;-83
2021/12/15 05:45:43;;;;;;;15.35;9.23;;;4.40;99.90;;;;;;5034462;28;20069;-84
2021/12/15 05:48:13;;;;;;;16.80;8.80;;;4.50;99.90;;;;;;5031657;28;20030;-84
2021/12/15 05:50:41;;;;;;;20.00;9.70;;;4.50;99.90;;;;;;5023143;28;20026;-84
2021/12/15 05:53:08;;;;;;;14.93;8.70;;;4.50;99.90;;;;;;4970294;28;20035;-84
2021/12/15 05:55:34;;;;;;;18.60;9.40;;;4.50;99.90;;;;;;4967848;28;20468;-85
2021/12/15 05:58:01;;;;;;;14.05;8.43;;;4.50;99.90;;;;;;4983450;28;20029;-84
2021/12/15 06:00:34;;;;;;;14.07;8.23;;;4.50;99.90;;;;;;4992598;28;20029;-85
2021/12/15 06:03:02;;;;;;;15.18;8.07;;;4.50;99.90;;;;;;5003660;28;20465;-84
2021/12/15 06:05:28;;;;;;;15.30;7.63;;;4.50;99.90;;;;;;5021524;28;20018;-84
2021/12/15 06:07:54;;;;;;;14.95;8.70;;;4.50;99.90;;;;;;5021016;28;20088;-85
2021/12/15 06:10:24;;;;;;;16.08;9.55;;;4.50;99.90;;;;;;5003264;28;20045;-85
2021/12/15 06:12:51;;;;;;;13.77;8.60;;;4.60;99.90;;;;;;5020248;28;20026;-85
2021/12/15 06:15:23;;;;;;;18.33;10.27;;;4.60;99.90;;;;;;5009234;28;20026;-84
2021/12/15 06:17:51;;;;;;;24.33;13.27;;;4.60;99.90;;;;;;5038896;28;20026;-83
2021/12/15 06:20:17;;;;;;;24.35;13.73;;;4.60;99.90;;;;;;5036241;28;20026;-84
2021/12/15 06:22:45;;;;;;;26.17;13.85;;;4.60;99.90;;;;;;5019376;28;20038;-84
2021/12/15 06:25:11;;;;;;;24.33;12.85;;;4.50;99.90;;;;;;5017584;28;20022;-85
2021/12/15 06:27:40;;;;;;;25.20;13.20;;;4.50;99.90;;;;;;4987268;28;20114;-84
2021/12/15 06:30:07;;;;;;;23.27;13.60;;;4.60;99.90;;;;;;4984751;28;20030;-83
2021/12/15 06:32:33;;;;;;;26.20;15.32;;;4.60;99.90;;;;;;5008080;28;20049;-84
2021/12/15 06:34:59;;;;;;;25.45;14.50;;;4.50;99.90;;;;;;5026551;28;20061;-85
2021/12/15 06:37:25;;;;;;;25.13;14.20;;;4.50;99.90;;;;;;5020751;28;20033;-84
2021/12/15 06:39:51;;;;;;;23.98;14.60;;;4.50;99.90;;;;;;5021059;28;20026;-84
2021/12/15 06:42:17;;;;;;;26.92;15.40;;;4.50;99.90;;;;;;5010764;28;20010;-85
2021/12/15 06:44:44;;;;;;;26.50;14.20;;;4.50;99.90;;;;;;5025854;28;20018;-85
2021/12/15 06:58:23;;;;;;;26.95;14.57;;;4.70;99.90;;;;;;5000544;28;20082;-82
2021/12/15 07:00:54;;;;;;;25.58;14.48;;;4.70;99.90;;;;;;5012709;28;20033;-82
2021/12/15 07:03:21;;;;;;;25.20;14.98;;;4.70;99.90;;;;;;5020646;28;20017;-83
2021/12/15 07:05:47;;;;;;;33.90;16.30;;;4.70;99.90;;;;;;5020595;28;20026;-83
2021/12/15 07:08:14;;;;;;;32.50;16.83;;;4.70;99.90;;;;;;5022690;28;20032;-83
2021/12/15 07:10:44;;;;;;;37.15;17.27;;;4.70;99.90;;;;;;5012674;28;20038;-83
2021/12/15 07:13:12;;;;;;;35.40;19.20;;;4.70;99.90;;;;;;5023036;28;20030;-81
2021/12/15 07:15:38;;;;;;;34.45;18.95;;;4.60;99.90;;;;;;5023991;28;20498;-82
2021/12/15 07:18:09;;;;;;;31.92;18.70;;;4.60;99.90;;;;;;5006246;28;20047;-81
2021/12/15 07:20:47;;;;;;;30.75;17.33;;;4.60;99.90;;;;;;5028904;28;20025;-82
2021/12/15 07:23:18;;;;;;;30.77;17.25;;;4.60;99.90;;;;;;5012280;28;20033;-83
2021/12/15 07:25:47;;;;;;;28.03;15.13;;;4.60;99.90;;;;;;5029405;28;20061;-82
2021/12/15 07:28:14;;;;;;;24.45;14.55;;;4.70;99.90;;;;;;5030356;28;20268;-83
2021/12/15 07:30:41;;;;;;;23.05;14.18;;;4.70;99.90;;;;;;5035018;28;20026;-81
2021/12/15 07:33:12;;;;;;;25.40;15.07;;;4.80;99.90;;;;;;5033665;28;20038;-81
2021/12/15 07:35:38;;;;;;;24.60;13.38;;;4.80;99.90;;;;;;5033161;28;20049;-83
2021/12/15 07:38:05;;;;;;;23.27;12.82;;;4.90;99.90;;;;;;5033576;28;20029;-84
2021/12/15 07:40:32;;;;;;;27.80;14.80;;;4.90;99.90;;;;;;5019040;28;20041;-83
2021/12/15 07:43:06;;;;;;;27.63;16.10;;;4.90;99.90;;;;;;5035131;28;20022;-83
2021/12/15 07:45:35;;;;;;;32.28;16.80;;;4.90;99.90;;;;;;5035357;28;20006;-80
2021/12/15 07:48:03;;;;;;;31.08;16.90;;;4.90;99.90;;;;;;5038448;28;20048;-83
2021/12/15 07:50:30;;;;;;;29.08;16.20;;;4.80;99.90;;;;;;5033491;28;20098;-80
2021/12/15 07:52:56;;;;;;;28.63;15.98;;;4.70;99.90;;;;;;5038205;28;20053;-84
2021/12/15 07:55:24;;;;;;;27.60;14.55;;;4.80;99.90;;;;;;5023916;28;20087;-86
2021/12/15 07:57:50;;;;;;;28.42;15.38;;;4.80;99.90;;;;;;5024756;28;20112;-83
2021/12/15 08:00:17;;;;;;;23.88;12.98;;;4.90;99.90;;;;;;5022358;28;20079;-84
2021/12/15 08:02:43;;;;;;;24.40;12.88;;;4.90;99.90;;;;;;5018278;28;20032;-83
2021/12/15 08:05:09;;;;;;;32.17;16.25;;;4.90;99.90;;;;;;5023228;28;20033;-83
2021/12/15 08:07:35;;;;;;;31.33;16.52;;;4.90;99.90;;;;;;5022874;28;20081;-84
2021/12/15 08:10:05;;;;;;;30.48;16.17;;;5.00;99.90;;;;;;5022974;28;20030;-82
2021/12/15 08:12:31;;;;;;;31.60;16.17;;;5.00;99.90;;;;;;5021933;28;20034;-81
2021/12/15 08:14:57;;;;;;;38.60;17.15;;;5.00;99.90;;;;;;5009694;28;20022;-82
2021/12/15 08:17:23;;;;;;;32.35;16.27;;;4.90;99.90;;;;;;4988379;28;20121;-83
2021/12/15 08:19:48;;;;;;;34.50;16.63;;;4.80;99.90;;;;;;5009443;28;20093;-83
2021/12/15 08:22:14;;;;;;;32.95;15.10;;;4.70;99.90;;;;;;5020728;28;20045;-84
2021/12/15 08:24:40;;;;;;;31.83;14.98;;;4.80;99.90;;;;;;5019942;28;20022;-84
2021/12/15 08:27:06;;;;;;;25.98;14.18;;;4.80;99.90;;;;;;5003293;28;20072;-83
2021/12/15 08:29:33;;;;;;;27.00;13.35;;;4.80;99.90;;;;;;5002037;28;20026;-82
2021/12/15 08:31:59;;;;;;;22.27;12.82;;;4.80;99.90;;;;;;5026552;28;20026;-83
2021/12/15 08:34:25;;;;;;;23.05;12.10;;;4.80;99.90;;;;;;5018850;28;20056;-85
2021/12/15 08:36:52;;;;;;;20.17;10.95;;;4.90;99.90;;;;;;5021727;28;20036;-84
2021/12/15 08:39:18;;;;;;;18.08;10.00;;;4.90;99.90;;;;;;5021428;28;20046;-83
2021/12/15 08:41:44;;;;;;;20.08;9.35;;;4.90;99.90;;;;;;5004503;28;20752;-83
2021/12/15 08:44:10;;;;;;;19.90;9.85;;;5.00;99.90;;;;;;5004417;28;20034;-84
2021/12/15 08:46:46;;;;;;;20.65;10.57;;;5.00;99.90;;;;;;5002099;28;20450;-85
2021/12/15 08:49:18;;;;;;;19.23;9.32;;;5.10;99.90;;;;;;5016613;28;20041;-84
2021/12/15 08:51:46;;;;;;;15.33;9.07;;;5.20;99.90;;;;;;5021728;28;20018;-82
2021/12/15 08:54:14;;;;;;;15.27;8.27;;;5.30;99.90;;;;;;5019723;28;20293;-83
2021/12/15 08:56:43;;;;;;;15.75;7.95;;;5.40;99.90;;;;;;5002384;28;20502;-82
2021/12/15 08:59:09;;;;;;;20.40;9.30;;;5.50;99.90;;;;;;5020547;28;20037;-82
2021/12/15 09:01:37;;;;;;;17.27;9.32;;;5.50;99.90;;;;;;5019730;28;20080;-83
2021/12/15 09:04:03;;;;;;;20.10;9.80;;;5.40;99.90;;;;;;5015138;28;20049;-82
2021/12/15 09:06:29;;;;;;;18.45;9.00;;;5.40;99.90;;;;;;5019086;28;20128;-83
2021/12/15 09:08:55;;;;;;;21.08;9.10;;;5.40;99.90;;;;;;5000781;28;20506;-82
2021/12/15 09:11:24;;;;;;;16.85;9.40;;;5.40;99.90;;;;;;5018145;28;20036;-83
2021/12/15 09:13:53;;;;;;;15.13;7.72;;;5.40;99.90;;;;;;5017821;28;20089;-83
2021/12/15 09:16:22;;;;;;;16.85;8.40;;;5.40;99.90;;;;;;5019239;28;20018;-82
2021/12/15 09:18:50;;;;;;;15.52;8.98;;;5.30;99.90;;;;;;5024005;28;20072;-84
2021/12/15 09:21:18;;;;;;;18.25;8.93;;;5.30;99.90;;;;;;5013325;28;20042;-83
2021/12/15 09:23:44;;;;;;;15.70;8.75;;;5.30;99.90;;;;;;5019397;28;20030;-84
2021/12/15 09:26:11;;;;;;;14.50;8.27;;;5.40;99.90;;;;;;5019870;28;20022;-83
2021/12/15 09:28:37;;;;;;;12.75;7.30;;;5.40;99.90;;;;;;5017688;28;20474;-84
2021/12/15 09:31:06;;;;;;;19.45;7.97;;;5.40;99.90;;;;;;5016955;28;20032;-84
2021/12/15 09:33:33;;;;;;;13.07;7.38;;;5.40;99.90;;;;;;4983060;28;20572;-83
2021/12/15 09:36:01;;;;;;;11.20;7.00;;;5.40;99.90;;;;;;5018012;28;20620;-84
2021/12/15 09:38:27;;;;;;;9.38;5.82;;;5.50;99.90;;;;;;5017110;28;20026;-87
2021/12/15 09:40:57;;;;;;;10.88;6.30;;;5.60;99.90;;;;;;4992396;28;20030;-84
2021/12/15 09:43:27;;;;;;;11.65;6.55;;;5.70;99.90;;;;;;4998075;28;20391;-84
2021/12/15 09:46:02;;;;;;;14.30;7.22;;;5.80;99.90;;;;;;4980999;28;20022;-84
2021/12/15 10:02:41;;;;;;;6.82;4.57;;;5.80;99.90;;;;;;5035440;28;20029;-83
2021/12/15 10:05:28;;;;;;;10.10;5.05;;;5.90;99.90;;;;;;5018425;28;20030;-84
2021/12/15 10:19:33;;;;;;;5.80;3.93;;;5.40;99.90;;;;;;5024823;28;20037;-86
2021/12/15 10:22:26;;;;;;;6.53;4.30;;;5.50;99.90;;;;;;5006123;28;20076;-87
2021/12/15 10:25:00;;;;;;;14.77;5.05;;;5.50;99.90;;;;;;5022415;28;20406;-87
2021/12/15 10:28:14;;;;;;;13.95;4.05;;;5.50;99.90;;;;;;5021933;28;20040;-87
2021/12/15 10:30:50;;;;;;;6.70;4.00;;;5.50;99.90;;;;;;4966365;28;20576;-86
2021/12/15 10:33:33;;;;;;;10.18;5.50;;;5.50;99.90;;;;;;5006137;28;20060;-87
2021/12/15 10:36:08;;;;;;;11.68;5.03;;;5.60;99.90;;;;;;5009188;28;20028;-86
2021/12/15 10:39:03;;;;;;;11.40;4.45;;;5.60;99.90;;;;;;5019083;28;20029;-86
2021/12/15 10:41:41;;;;;;;8.88;5.20;;;5.70;99.90;;;;;;4987205;28;20049;-86
2021/12/15 10:44:14;;;;;;;9.48;4.72;;;5.60;99.90;;;;;;5016115;28;20050;-87
2021/12/15 10:47:04;;;;;;;14.48;5.65;;;5.60;99.90;;;;;;5002928;28;20044;-85
2021/12/15 10:49:39;;;;;;;8.32;4.72;;;5.60;99.90;;;;;;5001659;28;20021;-86
2021/12/15 10:52:10;;;;;;;9.75;5.53;;;5.60;99.90;;;;;;4984383;28;20061;-86
2021/12/15 10:54:59;;;;;;;7.55;4.35;;;5.80;99.90;;;;;;5017365;28;20043;-86
2021/12/15 10:57:38;;;;;;;11.05;5.90;;;5.90;99.90;;;;;;5015802;28;20019;-87
2021/12/15 11:00:09;;;;;;;10.55;6.63;;;6.00;99.90;;;;;;5000382;28;20026;-87
2021/12/15 11:02:35;;;;;;;10.98;5.80;;;5.90;99.90;;;;;;5025843;28;20133;-86
2021/12/15 11:05:22;;;;;;;10.23;5.78;;;5.90;99.90;;;;;;5021172;28;20049;-86
2021/12/15 11:08:09;;;;;;;9.00;5.20;;;5.80;99.90;;;;;;5021918;28;20033;-87
2021/12/15 11:10:38;;;;;;;7.65;4.90;;;5.80;99.90;;;;;;5018668;28;20518;-85
2021/12/15 11:13:08;;;;;;;8.35;4.78;;;5.80;99.90;;;;;;5002211;28;20041;-84
2021/12/15 11:15:40;;;;;;;12.63;4.40;;;5.80;99.90;;;;;;5002781;28;20026;-85
2021/12/15 11:18:22;;;;;;;6.85;4.78;;;5.70;99.90;;;;;;5002429;28;20026;-85
2021/12/15 11:20:48;;;;;;;6.20;4.32;;;5.60;99.90;;;;;;5020181;28;20033;-83
2021/12/15 11:23:18;;;;;;;6.57;4.68;;;5.60;99.90;;;;;;5020966;28;20029;-84
2021/12/15 11:25:49;;;;;;;7.22;4.20;;;5.60;99.90;;;;;;5024078;28;20022;-85
2021/12/15 11:28:22;;;;;;;6.18;4.20;;;5.70;99.90;;;;;;5004955;28;20030;-85
2021/12/15 11:30:54;;;;;;;7.45;4.28;;;5.80;99.90;;;;;;5005196;28;20037;-86
2021/12/15 11:33:32;;;;;;;6.07;3.90;;;5.70;99.90;;;;;;5003897;28;20093;-85
2021/12/15 11:36:06;;;;;;;5.10;3.85;;;5.80;99.90;;;;;;5022547;28;20033;-86
2021/12/15 11:38:41;;;;;;;5.35;3.63;;;5.80;99.90;;;;;;5012657;28;20021;-84
2021/12/15 11:41:25;;;;;;;5.25;3.90;;;5.90;99.90;;;;;;5028512;28;20033;-86
2021/12/15 11:43:56;;;;;;;5.65;3.58;;;5.90;99.90;;;;;;5019117;28;20025;-86
2021/12/15 11:46:29;;;;;;;5.70;3.97;;;5.90;99.90;;;;;;5001255;28;20096;-87
2021/12/15 11:49:00;;;;;;;5.35;3.50;;;5.80;99.90;;;;;;5017543;28;20030;-84
2021/12/15 11:51:38;;;;;;;5.82;3.63;;;5.80;99.90;;;;;;5022818;28;20040;-85
2021/12/15 11:54:22;;;;;;;3.92;2.97;;;5.80;99.90;;;;;;5020142;28;20033;-85
2021/12/15 11:56:58;;;;;;;3.13;2.63;;;5.70;99.90;;;;;;5008464;28;20026;-83
2021/12/15 11:59:32;;;;;;;6.10;3.58;;;5.60;99.90;;;;;;5037084;28;20033;-84
2021/12/15 12:02:07;;;;;;;5.13;3.50;;;5.60;99.90;;;;;;5039623;28;20033;-86
2021/12/15 12:04:41;;;;;;;3.97;2.65;;;5.60;99.90;;;;;;5036740;28;20045;-85
2021/12/15 12:07:31;;;;;;;7.03;2.92;;;5.60;99.90;;;;;;5036293;28;20079;-85
2021/12/15 12:10:05;;;;;;;6.20;3.58;;;5.50;99.90;;;;;;5001374;28;20072;-86
2021/12/15 12:12:40;;;;;;;3.47;2.90;;;5.50;99.90;;;;;;4998882;28;20022;-85
2021/12/15 12:15:13;;;;;;;3.45;2.40;;;5.60;99.90;;;;;;4997206;28;20069;-86
2021/12/15 12:17:41;;;;;;;7.90;3.60;;;5.70;99.90;;;;;;4996381;28;20029;-86
2021/12/15 12:20:12;;;;;;;4.45;2.88;;;5.80;99.90;;;;;;4996719;28;20080;-85
2021/12/15 12:22:39;;;;;;;4.15;3.00;;;5.90;99.90;;;;;;4997028;28;20030;-83
2021/12/15 12:25:10;;;;;;;5.15;2.55;;;6.00;99.90;;;;;;4982117;28;20538;-82
2021/12/15 12:27:37;;;;;;;5.55;3.17;;;6.10;99.90;;;;;;4999750;28;20084;-84
2021/12/15 12:30:12;;;;;;;3.70;2.80;;;6.20;99.90;;;;;;4991179;28;20356;-83
2021/12/15 12:32:40;;;;;;;3.58;2.75;;;6.10;99.90;;;;;;5010981;28;20026;-84
2021/12/15 12:35:08;;;;;;;3.28;2.65;;;6.10;99.90;;;;;;5001560;28;20026;-85
2021/12/15 12:37:36;;;;;;;2.92;2.10;;;6.20;99.90;;;;;;5001790;28;20454;-83
2021/12/15 12:40:17;;;;;;;3.00;2.28;;;6.20;99.90;;;;;;5001845;28;20022;-84
2021/12/15 12:42:42;;;;;;;2.85;2.17;;;6.20;99.90;;;;;;5001256;28;20483;-84
2021/12/15 12:45:14;;;;;;;2.85;2.25;;;6.30;99.90;;;;;;5003487;28;20026;-83
2021/12/15 12:47:59;;;;;;;2.40;2.15;;;6.30;99.90;;;;;;5004535;28;20037;-83
2021/12/15 12:57:53;;;;;;;5.22;2.60;;;6.30;99.90;;;;;;5001452;28;20570;-84
2021/12/15 12:59:48;;;;;;;8.98;3.53;;;6.30;99.90;;;;;;5027546;28;20064;-84
2021/12/15 13:02:27;;;;;;;3.50;2.53;;;6.20;99.90;;;;;;5027692;28;20014;-84
2021/12/15 13:04:53;;;;;;;13.90;3.95;;;6.10;99.90;;;;;;5028469;28;20081;-82
2021/12/15 13:07:49;;;;;;;4.45;2.67;;;6.00;99.90;;;;;;5019834;28;20509;-83
2021/12/15 13:10:18;;;;;;;6.78;3.00;;;6.00;99.90;;;;;;5020358;28;20029;-85
2021/12/15 13:12:47;;;;;;;3.70;2.88;;;6.00;99.90;;;;;;5020076;28;20025;-84
2021/12/15 13:15:21;;;;;;;2.40;2.00;;;6.00;99.90;;;;;;5021458;28;20479;-83
2021/12/15 13:18:01;;;;;;;4.03;2.17;;;6.00;99.90;;;;;;5002979;28;20032;-84
2021/12/15 13:20:31;;;;;;;3.17;2.47;;;6.00;99.90;;;;;;5030665;28;20022;-83
2021/12/15 13:28:48;;;;;;;2.50;2.30;;;6.10;99.90;;;;;;5021889;28;20079;-84
2021/12/15 13:31:20;;;;;;;3.97;3.03;;;6.00;99.90;;;;;;5010812;28;20478;-85
2021/12/15 13:33:48;;;;;;;5.20;2.53;;;6.10;99.90;;;;;;5030049;28;20049;-83
2021/12/15 13:36:38;;;;;;;6.22;2.55;;;6.10;99.90;;;;;;5033070;28;20014;-84
2021/12/15 13:39:07;;;;;;;12.60;4.20;;;6.20;99.90;;;;;;5015310;28;20068;-84
2021/12/15 13:44:39;;;;;;;12.15;4.13;;;6.00;99.90;;;;;;5023833;28;20029;-82
2021/12/15 13:47:07;;;;;;;6.57;3.25;;;5.90;99.90;;;;;;5023981;28;20085;-84
2021/12/15 13:49:47;;;;;;;4.60;3.30;;;5.80;99.90;;;;;;5024501;28;20046;-84
2021/12/15 13:52:32;;;;;;;8.60;2.97;;;5.90;99.90;;;;;;5029848;28;20022;-83
2021/12/15 13:55:21;;;;;;;8.20;3.67;;;6.00;99.90;;;;;;5041020;28;20517;-81
2021/12/15 13:57:52;;;;;;;10.73;3.58;;;6.00;99.90;;;;;;5033296;28;20430;-82
2021/12/15 14:00:36;;;;;;;10.00;4.38;;;5.90;99.90;;;;;;5022778;28;20010;-79
2021/12/15 14:03:28;;;;;;;12.05;5.22;;;5.90;99.90;;;;;;5038630;28;20041;-83
2021/12/15 14:06:11;;;;;;;8.95;4.18;;;5.90;99.90;;;;;;5002893;28;20034;-83
2021/12/15 14:08:41;;;;;;;8.45;4.93;;;5.80;99.90;;;;;;5023747;28;20110;-83
2021/12/15 14:11:21;;;;;;;6.28;4.13;;;5.80;99.90;;;;;;5025579;28;20034;-83
2021/12/15 14:13:59;;;;;;;5.65;3.85;;;5.80;99.90;;;;;;5026095;28;20026;-83
2021/12/15 14:16:46;;;;;;;8.70;5.13;;;5.80;99.90;;;;;;5008224;28;20014;-84
2021/12/15 14:19:36;;;;;;;7.22;4.40;;;5.80;99.90;;;;;;5026396;28;20018;-83
2021/12/15 14:22:07;;;;;;;7.38;4.43;;;5.70;99.90;;;;;;5026010;28;20101;-83
2021/12/15 14:24:34;;;;;;;8.27;4.60;;;5.70;99.90;;;;;;5023261;28;20461;-84
2021/12/15 14:27:00;;;;;;;6.20;3.80;;;5.70;99.90;;;;;;5022505;28;20045;-82
2021/12/15 14:29:29;;;;;;;6.57;4.25;;;5.80;99.90;;;;;;5003137;28;20097;-82
2021/12/15 14:31:58;;;;;;;6.95;4.40;;;5.80;99.90;;;;;;5038698;28;20052;-83
2021/12/15 14:34:41;;;;;;;8.95;5.18;;;5.80;99.90;;;;;;5039091;28;20045;-81
2021/12/15 14:37:11;;;;;;;7.10;4.35;;;5.80;99.90;;;;;;5030609;28;20029;-83